Biltmor, North Carolina
Current Conditions -  °F | °C
As of 8:54 PM on Wednesday 17 Dec 2014 (Local Time) from KAVL Reporting Station
Clear Clear  
Wind Chill: 31°   Ceiling: Unl
Heat Index: 38°   Visibility: 10mi
Dew Point: 31°   Wind: 10mph
Humidity: 76%   Direction: 340°NNW
Pressure: 30.13"   Gusts: NA
Location:  35.5527°N, 82.5111°W
Report Text: KAVL 180154Z 34009KT 10SM CLR 03/M01 A3013 RMK AO2 SLP206 T00331006
Loading
Personal Weather Stations






























Interactive Weather Map New forecast layout! Learn more

10-Day Weather Forecast

Advertisements
Track Severe Weather on mobile